< < Back
Terminal Aerodrome Forecast


Current Version              Previous Versions:   1  2  3  4  5  6  7  8  9  

Terminal Aerodrome Forecast

019
FTUS44 KHUN 310520
TAFHSV
TAF
KHSV 310520Z 3106/0106 VRB04KT P6SM SCT250
     FM311500 15005KT P6SM BKN250=



Latest METAR

306
SAUS80 KWBC 311600
MTRHSV
METAR KHSV 311553Z 00000KT 10SM OVC150 04/M05 A3041 RMK AO2 SLP300
T00441050


USA.gov is the U.S. government's official web portal to all federal, state and local government web resources and services.